createdAt,value
2022-10-05T00:01:36.987Z,77.02
2022-10-05T00:04:59.311Z,76.89
2022-10-05T00:08:24.425Z,76.98
2022-10-05T00:11:46.463Z,77.22
2022-10-05T00:15:13.407Z,77.13
2022-10-05T00:18:35.001Z,77.73
2022-10-05T00:21:58.139Z,77.16
2022-10-05T00:25:22.915Z,77.41
2022-10-05T00:28:44.623Z,77.52
2022-10-05T00:32:06.536Z,78.19
2022-10-05T00:35:29.385Z,77.75
2022-10-05T00:38:51.126Z,78.09
2022-10-05T00:42:30.883Z,78.08
2022-10-05T00:45:57.886Z,78.51
2022-10-05T00:49:38.117Z,78.36
2022-10-05T00:53:07.075Z,78.10
2022-10-05T00:56:49.970Z,78.12
2022-10-05T01:00:16.990Z,77.94
2022-10-05T01:03:50.549Z,78.18
2022-10-05T01:07:20.563Z,77.47
2022-10-05T01:10:48.611Z,77.99
2022-10-05T01:14:17.731Z,77.94
2022-10-05T01:17:46.725Z,77.44
2022-10-05T01:21:18.553Z,77.10
2022-10-05T01:24:58.821Z,77.56
2022-10-05T01:28:25.425Z,77.37
2022-10-05T01:31:53.664Z,77.17
2022-10-05T01:35:25.964Z,77.22
2022-10-05T01:38:57.904Z,77.96
2022-10-05T01:42:31.430Z,77.27
2022-10-05T01:46:01.981Z,77.54
2022-10-05T01:49:38.124Z,77.58
2022-10-05T01:53:08.978Z,77.31
2022-10-05T01:56:39.402Z,78.00
2022-10-05T02:00:07.649Z,77.91
2022-10-05T02:03:46.110Z,78.68
2022-10-05T02:07:11.504Z,79.07
2022-10-05T02:10:37.542Z,78.57
2022-10-05T02:14:03.513Z,79.35
2022-10-05T02:17:31.919Z,79.39
2022-10-05T02:20:59.470Z,79.23
2022-10-05T02:24:25.988Z,79.56
2022-10-05T02:27:51.349Z,79.96
2022-10-05T02:31:16.707Z,80.07
2022-10-05T02:34:40.704Z,80.22
2022-10-05T02:38:27.404Z,80.58
2022-10-05T02:41:56.990Z,81.11
2022-10-05T02:45:29.086Z,81.58
2022-10-05T02:49:02.582Z,80.95
2022-10-05T02:52:30.993Z,81.27
2022-10-05T02:56:06.466Z,82.10
2022-10-05T02:59:32.983Z,82.03
2022-10-05T03:03:07.165Z,82.79
2022-10-05T03:06:33.790Z,82.27
2022-10-05T03:10:02.618Z,83.14
2022-10-05T03:13:37.081Z,82.93
2022-10-05T03:17:11.797Z,83.18
2022-10-05T03:20:42.097Z,83.09
2022-10-05T03:24:20.299Z,83.38
2022-10-05T03:27:46.205Z,83.12
2022-10-05T03:31:20.052Z,83.74
2022-10-05T03:34:47.506Z,83.75
2022-10-05T03:38:15.845Z,83.80
2022-10-05T03:41:43.521Z,83.82
2022-10-05T03:45:11.149Z,83.27
2022-10-05T03:48:41.194Z,83.14
2022-10-05T03:52:08.217Z,83.52
2022-10-05T03:55:36.887Z,83.60
2022-10-05T03:59:04.339Z,83.18
2022-10-05T04:02:30.441Z,82.36
2022-10-05T04:05:56.327Z,82.05
2022-10-05T04:09:23.906Z,81.50
2022-10-05T04:12:50.407Z,81.75
2022-10-05T04:16:16.056Z,81.29
2022-10-05T04:19:41.609Z,80.57
2022-10-05T04:23:15.819Z,80.16
2022-10-05T04:26:44.451Z,80.04
2022-10-05T04:30:12.411Z,80.45
2022-10-05T04:33:34.864Z,80.29
2022-10-05T04:37:02.322Z,79.99
2022-10-05T04:40:39.493Z,80.20
2022-10-05T04:44:18.205Z,79.55
2022-10-05T04:48:12.075Z,79.33
2022-10-05T04:51:46.573Z,79.37
2022-10-05T04:55:22.941Z,79.30
2022-10-05T04:59:01.830Z,79.84
2022-10-05T05:02:33.293Z,79.51
2022-10-05T05:06:18.344Z,79.95
2022-10-05T05:10:07.769Z,79.19
2022-10-05T05:13:52.519Z,79.02
2022-10-05T05:17:32.105Z,79.58
2022-10-05T05:21:03.276Z,79.65
2022-10-05T05:24:41.437Z,79.33
2022-10-05T05:28:18.544Z,80.28
2022-10-05T05:31:48.231Z,79.78
2022-10-05T05:35:29.395Z,80.41
2022-10-05T05:39:01.640Z,79.18
2022-10-05T05:42:38.387Z,79.43
2022-10-05T05:46:01.910Z,78.98
2022-10-05T05:49:34.232Z,78.66
2022-10-05T05:53:02.165Z,78.37
2022-10-05T05:56:32.572Z,78.96
2022-10-05T06:00:05.502Z,78.53
2022-10-05T06:03:39.723Z,78.83
2022-10-05T06:07:06.014Z,78.42
2022-10-05T06:10:36.524Z,78.65
2022-10-05T06:14:12.419Z,78.07
2022-10-05T06:17:40.137Z,77.93
2022-10-05T06:21:07.880Z,77.85
2022-10-05T06:24:35.821Z,77.64
2022-10-05T06:28:04.577Z,76.94
2022-10-05T06:31:54.173Z,77.34
2022-10-05T06:35:27.724Z,77.72
2022-10-05T06:39:30.118Z,77.51
2022-10-05T06:43:06.711Z,77.35
2022-10-05T06:46:33.132Z,77.64
2022-10-05T06:50:33.849Z,77.44
2022-10-05T06:54:26.803Z,76.83
2022-10-05T06:58:01.198Z,76.65
2022-10-05T07:01:38.455Z,76.52
2022-10-05T07:05:26.529Z,76.70
2022-10-05T07:09:04.011Z,77.01
2022-10-05T07:12:59.754Z,76.51
2022-10-05T07:16:32.456Z,76.67
2022-10-05T07:20:04.853Z,76.42
2022-10-05T07:23:43.891Z,76.41
2022-10-05T07:27:13.531Z,76.29
2022-10-05T07:30:44.612Z,76.20
2022-10-05T07:34:10.837Z,75.87
2022-10-05T07:37:57.734Z,75.46
2022-10-05T07:41:31.206Z,75.16
2022-10-05T07:44:59.408Z,75.51
2022-10-05T07:48:23.649Z,75.10
2022-10-05T07:51:49.379Z,75.37
2022-10-05T07:55:20.186Z,75.02
2022-10-05T07:58:47.412Z,74.84
2022-10-05T08:02:22.679Z,74.73
2022-10-05T08:05:47.225Z,74.89
2022-10-05T08:09:24.061Z,74.76
2022-10-05T08:13:04.080Z,74.92
2022-10-05T08:16:32.362Z,74.82
2022-10-05T08:20:02.250Z,74.89
2022-10-05T08:23:29.271Z,74.46
2022-10-05T08:26:56.375Z,73.91
2022-10-05T08:30:20.421Z,73.81
2022-10-05T08:33:52.607Z,74.44
2022-10-05T08:37:19.839Z,74.14
2022-10-05T08:41:10.718Z,73.94
2022-10-05T08:45:07.981Z,74.14
2022-10-05T08:48:59.272Z,74.39
2022-10-05T08:52:29.125Z,74.46
2022-10-05T08:56:08.330Z,73.62
2022-10-05T08:59:58.642Z,73.96
2022-10-05T09:03:36.690Z,73.10
2022-10-05T09:07:14.665Z,73.12
2022-10-05T09:11:03.653Z,73.62
2022-10-05T09:15:07.150Z,73.03
2022-10-05T09:19:05.551Z,72.99
2022-10-05T09:22:53.619Z,73.81
2022-10-05T09:26:44.201Z,73.14
2022-10-05T09:30:27.112Z,73.28
2022-10-05T09:34:26.097Z,73.26
2022-10-05T09:38:19.639Z,72.26
2022-10-05T09:42:07.722Z,72.14
2022-10-05T09:46:13.894Z,72.09
2022-10-05T09:49:53.607Z,71.98
2022-10-05T09:53:44.872Z,71.68
2022-10-05T09:57:40.813Z,71.18
2022-10-05T10:01:32.681Z,71.85
2022-10-05T10:05:09.309Z,71.83
2022-10-05T10:08:43.516Z,70.69
2022-10-05T10:12:28.777Z,70.25
2022-10-05T10:16:11.913Z,70.03
2022-10-05T10:19:58.978Z,70.58
2022-10-05T10:23:30.638Z,70.62
2022-10-05T10:27:16.587Z,70.65
2022-10-05T10:31:01.645Z,70.20
2022-10-05T10:34:58.884Z,69.80
2022-10-05T10:38:41.314Z,69.76
2022-10-05T10:42:35.329Z,69.89
2022-10-05T10:46:03.176Z,69.05
2022-10-05T10:49:43.001Z,68.67
2022-10-05T10:53:32.621Z,68.42
2022-10-05T10:57:06.781Z,68.67
2022-10-05T11:00:41.921Z,68.32
2022-10-05T11:04:37.171Z,68.34
2022-10-05T11:08:32.323Z,67.66
2022-10-05T11:12:33.560Z,66.80
2022-10-05T11:16:33.273Z,67.02
2022-10-05T11:20:17.850Z,67.13
2022-10-05T11:23:57.828Z,66.74
2022-10-05T11:27:47.594Z,66.43
2022-10-05T11:32:06.110Z,66.07
2022-10-05T11:35:57.148Z,67.09
2022-10-05T11:39:33.089Z,65.77
2022-10-05T11:43:15.316Z,65.87
2022-10-05T11:46:46.089Z,64.68
2022-10-05T11:50:21.382Z,64.69
2022-10-05T11:53:50.293Z,64.60
2022-10-05T11:57:17.659Z,64.99
2022-10-05T12:00:43.578Z,65.05
2022-10-05T12:04:18.343Z,65.53
2022-10-05T12:07:48.783Z,64.67
2022-10-05T12:11:26.849Z,63.47
2022-10-05T12:14:57.510Z,64.31
2022-10-05T12:18:24.877Z,64.34
2022-10-05T12:21:52.624Z,64.98
2022-10-05T12:25:26.663Z,65.30
2022-10-05T12:28:54.335Z,64.99
2022-10-05T12:32:20.894Z,65.26
2022-10-05T12:35:50.439Z,64.70
2022-10-05T12:39:22.636Z,64.67
2022-10-05T12:42:55.074Z,64.05
2022-10-05T12:46:24.380Z,63.67
2022-10-05T12:50:04.309Z,63.05
2022-10-05T12:53:39.325Z,63.46
2022-10-05T12:57:07.628Z,63.21
2022-10-05T13:00:35.137Z,62.43
2022-10-05T13:04:05.961Z,62.62
2022-10-05T13:07:44.897Z,61.85
2022-10-05T13:11:16.118Z,61.88
2022-10-05T13:14:50.223Z,61.34
2022-10-05T13:18:23.195Z,61.47
2022-10-05T13:22:20.630Z,62.19
2022-10-05T13:25:51.660Z,63.30
2022-10-05T13:29:20.043Z,62.50
2022-10-05T13:32:45.028Z,62.88
2022-10-05T13:36:17.303Z,63.26
2022-10-05T13:39:54.846Z,63.30
2022-10-05T13:43:24.049Z,61.98
2022-10-05T13:46:50.315Z,60.92
2022-10-05T13:50:20.051Z,60.49
2022-10-05T13:53:49.104Z,61.31
2022-10-05T13:57:19.320Z,61.29
2022-10-05T14:00:47.996Z,60.55
2022-10-05T14:04:17.866Z,60.50
2022-10-05T14:07:49.333Z,60.62
2022-10-05T14:11:27.662Z,60.95
2022-10-05T14:14:51.724Z,61.45
2022-10-05T14:18:25.246Z,61.56
2022-10-05T14:21:53.400Z,61.03
2022-10-05T14:25:18.269Z,59.24
2022-10-05T14:28:43.690Z,58.76
2022-10-05T14:32:18.612Z,58.58
2022-10-05T14:35:50.045Z,57.69
2022-10-05T14:39:13.750Z,57.70
2022-10-05T14:42:47.312Z,57.30
2022-10-05T14:46:27.236Z,57.94
2022-10-05T14:50:10.570Z,58.49
2022-10-05T14:53:39.749Z,57.86
2022-10-05T14:57:18.021Z,58.86
2022-10-05T15:00:50.267Z,58.32
2022-10-05T15:04:30.346Z,58.06
2022-10-05T15:07:57.199Z,57.24
2022-10-05T15:11:30.294Z,55.84
2022-10-05T15:14:56.998Z,56.44
2022-10-05T15:18:30.969Z,56.60
2022-10-05T15:22:11.722Z,56.75
2022-10-05T15:25:40.355Z,56.19
2022-10-05T15:29:10.969Z,55.84
2022-10-05T15:32:44.859Z,54.85
2022-10-05T15:36:12.946Z,54.16
2022-10-05T15:39:43.300Z,54.38
2022-10-05T15:43:11.240Z,54.32
2022-10-05T15:46:36.658Z,53.29
2022-10-05T15:50:07.496Z,52.39
2022-10-05T15:53:37.042Z,53.07
2022-10-05T15:57:08.776Z,52.79
2022-10-05T16:00:34.925Z,53.78
2022-10-05T16:04:06.616Z,54.88
2022-10-05T16:07:50.741Z,55.58
2022-10-05T16:11:22.759Z,55.88
2022-10-05T16:14:56.645Z,56.70
2022-10-05T16:18:45.619Z,57.24
2022-10-05T16:22:16.043Z,57.80
2022-10-05T16:25:48.107Z,59.09
2022-10-05T16:29:16.149Z,59.72
2022-10-05T16:32:44.081Z,60.09
2022-10-05T16:36:13.656Z,61.63
2022-10-05T16:39:52.695Z,63.01
2022-10-05T16:43:30.515Z,63.18
2022-10-05T16:47:00.263Z,63.67
2022-10-05T16:50:31.266Z,64.79
2022-10-05T16:54:03.079Z,65.56
2022-10-05T16:57:28.167Z,66.56
2022-10-05T17:01:12.889Z,67.49
2022-10-05T17:04:46.461Z,67.70
2022-10-05T17:08:29.477Z,68.15
2022-10-05T17:12:19.074Z,68.01
2022-10-05T17:16:01.163Z,68.64
2022-10-05T17:19:43.041Z,68.98
2022-10-05T17:23:16.988Z,69.32
2022-10-05T17:26:57.028Z,70.37
2022-10-05T17:30:53.983Z,70.71
2022-10-05T17:34:30.164Z,71.23
2022-10-05T17:38:16.168Z,71.69
2022-10-05T17:41:38.754Z,72.29
2022-10-05T17:45:22.028Z,72.84
2022-10-05T17:49:12.533Z,73.42
2022-10-05T17:52:51.629Z,73.56
2022-10-05T17:56:13.101Z,74.07
2022-10-05T17:59:45.557Z,74.54
2022-10-05T18:03:43.420Z,75.22
2022-10-05T18:07:17.201Z,75.36
2022-10-05T18:10:41.263Z,75.80
2022-10-05T18:14:18.873Z,76.81
2022-10-05T18:17:45.299Z,76.67
2022-10-05T18:21:28.113Z,76.98
2022-10-05T18:25:05.770Z,77.63
2022-10-05T18:28:40.853Z,77.31
2022-10-05T18:32:09.014Z,78.17
2022-10-05T18:35:42.488Z,78.14
2022-10-05T18:39:18.424Z,78.61
2022-10-05T18:42:45.150Z,79.45
2022-10-05T18:46:21.914Z,79.15
2022-10-05T18:49:58.388Z,79.10
2022-10-05T18:53:29.090Z,79.12
2022-10-05T18:56:53.782Z,80.07
2022-10-05T19:00:18.650Z,80.35
2022-10-05T19:03:51.138Z,79.93
2022-10-05T19:07:24.857Z,80.61
2022-10-05T19:10:51.046Z,80.92
2022-10-05T19:14:24.607Z,80.68
2022-10-05T19:18:05.505Z,81.05
2022-10-05T19:21:37.927Z,81.77
2022-10-05T19:25:20.496Z,81.24
2022-10-05T19:28:55.824Z,81.52
2022-10-05T19:32:27.619Z,81.21
2022-10-05T19:36:04.392Z,81.52
2022-10-05T19:39:38.985Z,81.69
2022-10-05T19:43:19.088Z,81.99
2022-10-05T19:46:55.379Z,81.91
2022-10-05T19:50:27.597Z,81.90
2022-10-05T19:53:51.221Z,82.21
2022-10-05T19:57:17.974Z,82.67
2022-10-05T20:00:39.644Z,83.30
2022-10-05T20:04:01.257Z,83.53
2022-10-05T20:07:24.363Z,83.52
2022-10-05T20:10:47.104Z,83.72
2022-10-05T20:14:19.585Z,84.17
2022-10-05T20:17:58.301Z,83.76
2022-10-05T20:21:43.751Z,83.75
2022-10-05T20:25:08.582Z,83.38
2022-10-05T20:28:33.564Z,82.83
2022-10-05T20:31:55.018Z,82.28
2022-10-05T20:35:16.861Z,82.34
2022-10-05T20:38:41.028Z,82.08
2022-10-05T20:42:04.182Z,81.54
2022-10-05T20:45:25.923Z,81.21
2022-10-05T20:48:47.678Z,81.39
2022-10-05T20:52:10.857Z,80.75
2022-10-05T20:55:34.166Z,80.84
2022-10-05T20:58:57.071Z,80.03
2022-10-05T21:02:19.938Z,79.89
2022-10-05T21:05:41.521Z,79.06
2022-10-05T21:09:03.004Z,78.84
2022-10-05T21:12:24.886Z,78.95
2022-10-05T21:15:48.312Z,78.32
2022-10-05T21:19:12.287Z,78.72
2022-10-05T21:22:36.261Z,78.14
2022-10-05T21:25:57.631Z,77.45
2022-10-05T21:29:18.973Z,77.85
2022-10-05T21:32:44.438Z,76.78
2022-10-05T21:36:07.128Z,77.12
2022-10-05T21:39:28.909Z,76.86
2022-10-05T21:42:50.711Z,76.47
2022-10-05T21:46:14.154Z,76.42
2022-10-05T21:49:37.638Z,75.87
2022-10-05T21:53:00.605Z,75.54
2022-10-05T21:56:26.372Z,75.73
2022-10-05T21:59:48.032Z,75.05
2022-10-05T22:03:09.435Z,75.47
2022-10-05T22:06:32.574Z,74.93
2022-10-05T22:09:53.818Z,75.35
2022-10-05T22:13:16.074Z,75.35
2022-10-05T22:16:40.411Z,74.93
2022-10-05T22:20:02.239Z,75.11
2022-10-05T22:23:25.256Z,74.58
2022-10-05T22:26:51.326Z,74.61
2022-10-05T22:30:14.723Z,74.74
2022-10-05T22:33:36.986Z,74.49
2022-10-05T22:36:59.387Z,74.18
2022-10-05T22:40:22.255Z,74.29
2022-10-05T22:43:44.081Z,74.45
2022-10-05T22:47:05.504Z,73.93
2022-10-05T22:50:27.203Z,74.52
2022-10-05T22:53:48.837Z,74.06
2022-10-05T22:57:12.005Z,73.35
2022-10-05T23:00:56.433Z,73.84
2022-10-05T23:04:15.039Z,73.44
2022-10-05T23:07:37.805Z,72.99
2022-10-05T23:11:03.595Z,73.28
2022-10-05T23:14:26.971Z,73.07
2022-10-05T23:17:48.655Z,73.24
2022-10-05T23:21:11.086Z,73.06
2022-10-05T23:24:32.558Z,73.07
2022-10-05T23:27:53.859Z,73.12
2022-10-05T23:31:18.538Z,73.38
2022-10-05T23:34:40.154Z,73.35
2022-10-05T23:38:01.427Z,72.94
2022-10-05T23:41:22.879Z,73.30
2022-10-05T23:44:44.334Z,73.03
2022-10-05T23:48:07.607Z,72.82
2022-10-05T23:51:29.061Z,73.25
2022-10-05T23:54:50.837Z,73.11
2022-10-05T23:58:13.835Z,72.80
